createdAt,value
2019-06-07T00:00:50.069Z,55.70
2019-06-07T00:01:57.939Z,55.83
2019-06-07T00:03:10.652Z,55.92
2019-06-07T00:04:16.620Z,56.06
2019-06-07T00:05:25.307Z,55.96
2019-06-07T00:06:33.291Z,55.93
2019-06-07T00:07:42.145Z,55.91
2019-06-07T00:08:50.143Z,56.09
2019-06-07T00:09:58.711Z,56.44
2019-06-07T00:11:07.779Z,56.00
2019-06-07T00:12:21.100Z,55.67
2019-06-07T00:13:26.956Z,55.32
2019-06-07T00:14:35.491Z,55.50
2019-06-07T00:15:43.401Z,55.62
2019-06-07T00:16:52.094Z,55.45
2019-06-07T00:18:00.001Z,55.63
2019-06-07T00:19:09.644Z,56.04
2019-06-07T00:20:23.276Z,55.92
2019-06-07T00:22:12.645Z,56.16
2019-06-07T00:22:38.368Z,56.11
2019-06-07T00:23:47.047Z,55.97
2019-06-07T00:24:54.958Z,55.96
2019-06-07T00:26:03.681Z,55.53
2019-06-07T00:27:12.879Z,55.75
2019-06-07T00:28:21.893Z,55.79
2019-06-07T00:29:30.016Z,55.71
2019-06-07T00:30:50.705Z,55.77
2019-06-07T00:31:48.548Z,55.97
2019-06-07T00:32:57.230Z,55.96
2019-06-07T00:34:05.288Z,55.93
2019-06-07T00:35:15.445Z,56.01
2019-06-07T00:36:23.800Z,56.19
2019-06-07T00:37:32.435Z,56.23
2019-06-07T00:38:40.189Z,56.54
2019-06-07T00:40:12.770Z,56.58
2019-06-07T00:40:58.327Z,56.47
2019-06-07T00:42:07.042Z,56.76
2019-06-07T00:43:17.561Z,56.70
2019-06-07T00:44:25.409Z,56.59
2019-06-07T00:45:33.591Z,56.63
2019-06-07T00:46:42.160Z,56.71
2019-06-07T00:47:50.385Z,56.76
2019-06-07T00:48:58.917Z,56.84
2019-06-07T00:50:07.973Z,57.23
2019-06-07T00:51:17.666Z,57.51
2019-06-07T00:53:36.930Z,57.49
2019-06-07T00:54:45.175Z,57.56
2019-06-07T00:55:53.796Z,57.28
2019-06-07T00:57:01.674Z,57.56
2019-06-07T00:58:13.149Z,57.56
2019-06-07T00:59:24.265Z,57.68
2019-06-07T01:00:30.832Z,57.86
2019-06-07T01:01:38.853Z,57.90
2019-06-07T01:02:49.707Z,58.00
2019-06-07T01:03:57.544Z,57.90
2019-06-07T01:05:09.153Z,57.95
2019-06-07T01:06:17.642Z,57.94
2019-06-07T01:07:27.629Z,57.90
2019-06-07T01:08:35.954Z,57.75
2019-06-07T01:09:44.716Z,58.03
2019-06-07T01:10:54.305Z,58.01
2019-06-07T01:12:03.265Z,58.27
2019-06-07T01:13:11.118Z,58.25
2019-06-07T01:14:22.653Z,58.12
2019-06-07T01:15:30.113Z,58.11
2019-06-07T01:16:56.312Z,58.31
2019-06-07T01:18:33.174Z,58.62
2019-06-07T01:18:58.549Z,58.60
2019-06-07T01:20:09.565Z,58.59
2019-06-07T01:21:20.650Z,58.48
2019-06-07T01:22:29.367Z,58.36
2019-06-07T01:24:48.002Z,58.44
2019-06-07T01:25:56.712Z,58.04
2019-06-07T01:27:04.637Z,57.89
2019-06-07T01:28:16.411Z,57.53
2019-06-07T01:29:25.032Z,57.71
2019-06-07T01:30:34.847Z,57.63
2019-06-07T01:31:44.219Z,57.86
2019-06-07T01:32:52.935Z,57.68
2019-06-07T01:34:00.713Z,57.47
2019-06-07T01:35:09.783Z,57.58
2019-06-07T01:36:18.307Z,57.44
2019-06-07T01:37:30.229Z,57.08
2019-06-07T01:38:37.865Z,57.52
2019-06-07T01:39:46.638Z,57.58
2019-06-07T01:40:54.348Z,57.89
2019-06-07T01:42:03.227Z,58.06
2019-06-07T01:43:11.163Z,58.38
2019-06-07T01:44:23.636Z,58.39
2019-06-07T01:45:31.136Z,58.67
2019-06-07T01:46:40.023Z,58.92
2019-06-07T01:47:48.102Z,59.29
2019-06-07T01:48:57.101Z,59.31
2019-06-07T01:50:11.378Z,58.71
2019-06-07T01:51:20.098Z,58.68
2019-06-07T01:52:29.749Z,58.76
2019-06-07T01:53:38.433Z,58.86
2019-06-07T01:54:58.128Z,59.20
2019-06-07T01:55:56.872Z,59.08
2019-06-07T01:57:04.908Z,59.24
2019-06-07T01:58:13.680Z,59.37
2019-06-07T01:59:23.271Z,59.48
2019-06-07T02:00:32.731Z,59.52
2019-06-07T02:01:41.032Z,59.54
2019-06-07T02:02:49.795Z,59.01
2019-06-07T02:03:57.844Z,58.99
2019-06-07T02:05:09.836Z,59.08
2019-06-07T02:06:18.470Z,58.98
2019-06-07T02:07:32.449Z,59.03
2019-06-07T02:08:37.197Z,59.20
2019-06-07T02:09:45.990Z,59.32
2019-06-07T02:10:53.961Z,59.47
2019-06-07T02:12:02.592Z,59.73
2019-06-07T02:13:10.562Z,59.88
2019-06-07T02:14:19.622Z,59.90
2019-06-07T02:15:31.369Z,59.79
2019-06-07T02:16:38.366Z,59.69
2019-06-07T02:17:46.600Z,59.76
2019-06-07T02:19:01.626Z,59.64
2019-06-07T02:20:07.797Z,59.67
2019-06-07T02:21:16.706Z,59.51
2019-06-07T02:22:25.764Z,59.42
2019-06-07T02:23:34.955Z,59.33
2019-06-07T02:24:43.759Z,59.12
2019-06-07T02:25:52.726Z,59.12
2019-06-07T02:27:00.980Z,58.94
2019-06-07T02:28:27.631Z,58.91
2019-06-07T02:29:20.452Z,59.06
2019-06-07T02:30:46.090Z,59.58
2019-06-07T02:31:40.031Z,59.34
2019-06-07T02:32:48.892Z,59.30
2019-06-07T02:33:56.928Z,59.92
2019-06-07T02:35:08.524Z,59.76
2019-06-07T02:36:16.728Z,59.78
2019-06-07T02:37:27.630Z,60.00
2019-06-07T02:38:37.511Z,59.91
2019-06-07T02:39:46.224Z,60.19
2019-06-07T02:40:54.421Z,59.99
2019-06-07T02:42:03.388Z,60.17
2019-06-07T02:43:11.355Z,59.99
2019-06-07T02:44:23.147Z,60.07
2019-06-07T02:45:37.784Z,60.00
2019-06-07T02:46:49.074Z,60.02
2019-06-07T02:47:51.303Z,60.28
2019-06-07T02:48:59.604Z,60.19
2019-06-07T02:50:12.832Z,60.36
2019-06-07T02:51:23.685Z,60.46
2019-06-07T02:52:38.687Z,60.79
2019-06-07T02:53:55.307Z,60.91
2019-06-07T02:55:03.132Z,60.91
2019-06-07T02:56:37.286Z,61.14
2019-06-07T02:57:24.953Z,61.42
2019-06-07T02:58:38.426Z,61.50
2019-06-07T03:00:05.512Z,61.63
2019-06-07T03:01:07.071Z,61.51
2019-06-07T03:02:04.356Z,61.68
2019-06-07T03:03:15.686Z,61.65
2019-06-07T03:04:28.559Z,61.62
2019-06-07T03:05:38.782Z,61.48
2019-06-07T03:06:48.069Z,61.42
2019-06-07T03:07:57.543Z,61.25
2019-06-07T03:09:08.343Z,61.12
2019-06-07T03:10:19.107Z,61.30
2019-06-07T03:11:32.348Z,61.29
2019-06-07T03:12:45.632Z,61.32
2019-06-07T03:13:54.555Z,61.31
2019-06-07T03:15:04.646Z,61.44
2019-06-07T03:16:14.543Z,61.47
2019-06-07T03:17:38.932Z,61.52
2019-06-07T03:19:03.446Z,61.51
2019-06-07T03:20:13.766Z,61.88
2019-06-07T03:21:33.730Z,61.84
2019-06-07T03:22:43.770Z,62.11
2019-06-07T03:23:59.641Z,61.97
2019-06-07T03:25:07.862Z,61.96
2019-06-07T03:26:19.435Z,62.15
2019-06-07T03:27:36.068Z,61.63
2019-06-07T03:28:39.599Z,61.14
2019-06-07T03:29:47.306Z,61.04
2019-06-07T03:31:01.955Z,61.23
2019-06-07T03:32:05.957Z,61.67
2019-06-07T03:33:14.898Z,61.62
2019-06-07T03:34:48.774Z,62.11
2019-06-07T03:35:57.081Z,62.23
2019-06-07T03:37:05.047Z,62.36
2019-06-07T03:38:14.287Z,62.49
2019-06-07T03:39:22.231Z,62.42
2019-06-07T03:40:31.682Z,62.70
2019-06-07T03:41:55.407Z,62.67
2019-06-07T03:42:51.089Z,62.81
2019-06-07T03:43:59.160Z,62.72
2019-06-07T03:45:10.036Z,62.73
2019-06-07T03:46:18.054Z,62.81
2019-06-07T03:47:30.625Z,62.85
2019-06-07T03:48:39.594Z,62.78
2019-06-07T03:49:46.446Z,62.98
2019-06-07T03:51:04.182Z,63.14
2019-06-07T03:52:04.956Z,63.24
2019-06-07T03:53:12.894Z,63.16
2019-06-07T03:54:22.037Z,63.30
2019-06-07T03:55:31.149Z,63.40
2019-06-07T03:56:41.038Z,63.55
2019-06-07T03:58:59.824Z,63.29
2019-06-07T04:00:12.383Z,63.34
2019-06-07T04:01:21.108Z,63.19
2019-06-07T04:02:30.364Z,63.18
2019-06-07T04:03:46.393Z,63.20
2019-06-07T04:04:49.182Z,63.13
2019-06-07T04:05:57.843Z,62.71
2019-06-07T04:07:05.737Z,62.89
2019-06-07T04:08:14.473Z,62.78
2019-06-07T04:09:22.699Z,62.50
2019-06-07T04:10:48.312Z,62.42
2019-06-07T04:11:41.053Z,62.40
2019-06-07T04:12:49.709Z,62.46
2019-06-07T04:13:57.626Z,62.30
2019-06-07T04:15:07.188Z,62.34
2019-06-07T04:16:15.495Z,62.35
2019-06-07T04:17:24.212Z,62.59
2019-06-07T04:18:33.038Z,62.48
2019-06-07T04:19:43.545Z,62.52
2019-06-07T04:20:51.768Z,62.66
2019-06-07T04:22:00.468Z,62.68
2019-06-07T04:23:27.351Z,62.83
2019-06-07T04:24:18.848Z,62.86
2019-06-07T04:25:28.652Z,62.82
2019-06-07T04:26:43.277Z,62.72
2019-06-07T04:27:47.372Z,62.56
2019-06-07T04:29:31.862Z,62.48
2019-06-07T04:30:08.572Z,62.19
2019-06-07T04:31:17.655Z,62.25
2019-06-07T04:32:25.824Z,62.36
2019-06-07T04:33:39.290Z,62.38
2019-06-07T04:34:44.365Z,62.44
2019-06-07T04:35:55.160Z,62.47
2019-06-07T04:37:03.811Z,62.37
2019-06-07T04:38:14.282Z,62.21
2019-06-07T04:39:25.214Z,62.21
2019-06-07T04:40:36.845Z,62.36
2019-06-07T04:41:46.844Z,62.41
2019-06-07T04:42:56.388Z,62.39
2019-06-07T04:44:04.721Z,62.48
2019-06-07T04:45:32.921Z,62.39
2019-06-07T04:46:24.923Z,62.36
2019-06-07T04:47:37.204Z,62.49
2019-06-07T04:48:48.088Z,62.84
2019-06-07T04:49:58.726Z,62.79
2019-06-07T04:51:06.935Z,62.39
2019-06-07T04:52:16.467Z,62.38
2019-06-07T04:53:24.462Z,62.89
2019-06-07T04:54:35.055Z,63.02
2019-06-07T04:55:43.349Z,63.14
2019-06-07T04:56:52.528Z,62.82
2019-06-07T04:58:00.629Z,63.03
2019-06-07T04:59:09.558Z,63.10
2019-06-07T05:00:48.666Z,63.41
2019-06-07T05:01:34.437Z,63.36
2019-06-07T05:02:43.626Z,63.27
2019-06-07T05:03:52.894Z,62.99
2019-06-07T05:05:01.087Z,62.39
2019-06-07T05:06:10.011Z,62.15
2019-06-07T05:07:18.521Z,62.40
2019-06-07T05:08:29.848Z,62.49
2019-06-07T05:09:39.427Z,62.33
2019-06-07T05:10:47.372Z,62.49
2019-06-07T05:11:55.420Z,62.74
2019-06-07T05:13:04.114Z,62.94
2019-06-07T05:14:11.991Z,62.82
2019-06-07T05:15:20.946Z,61.92
2019-06-07T05:16:30.552Z,62.16
2019-06-07T05:17:40.548Z,62.22
2019-06-07T05:18:48.998Z,62.33
2019-06-07T05:19:58.041Z,62.45
2019-06-07T05:21:06.019Z,62.51
2019-06-07T05:22:14.689Z,62.57
2019-06-07T05:24:02.520Z,62.19
2019-06-07T05:24:37.675Z,61.60
2019-06-07T05:25:44.828Z,61.24
2019-06-07T05:26:53.772Z,61.06
2019-06-07T05:28:02.245Z,61.08
2019-06-07T05:29:11.093Z,61.03
2019-06-07T05:31:48.987Z,61.03
2019-06-07T05:32:56.862Z,61.14
2019-06-07T05:34:06.006Z,61.15
2019-06-07T05:35:15.540Z,61.04
2019-06-07T05:36:24.661Z,61.10
2019-06-07T05:37:33.928Z,60.36
2019-06-07T05:38:44.860Z,60.57
2019-06-07T05:39:53.014Z,60.56
2019-06-07T05:41:02.173Z,60.67
2019-06-07T05:42:10.504Z,61.07
2019-06-07T05:43:28.519Z,60.33
2019-06-07T05:44:36.636Z,60.22
2019-06-07T05:45:47.065Z,58.79
2019-06-07T05:46:55.436Z,58.31
2019-06-07T05:48:05.188Z,58.19
2019-06-07T05:49:13.330Z,58.96
2019-06-07T05:50:39.025Z,58.98
2019-06-07T05:51:32.298Z,58.32
2019-06-07T05:52:45.093Z,58.93
2019-06-07T05:53:50.877Z,58.88
2019-06-07T05:54:59.729Z,58.12
2019-06-07T05:56:07.857Z,57.91
2019-06-07T05:57:16.883Z,58.13
2019-06-07T05:58:25.227Z,57.97
2019-06-07T05:59:37.827Z,57.91
2019-06-07T06:00:44.655Z,56.94
2019-06-07T06:02:02.614Z,57.35
2019-06-07T06:03:06.043Z,57.72
2019-06-07T06:04:14.502Z,57.78
2019-06-07T06:05:33.118Z,57.11
2019-06-07T06:06:33.919Z,57.36
2019-06-07T06:07:45.237Z,56.57
2019-06-07T06:09:10.769Z,56.63
2019-06-07T06:10:02.229Z,56.81
2019-06-07T06:11:11.495Z,57.08
2019-06-07T06:12:34.227Z,57.05
2019-06-07T06:13:30.350Z,57.02
2019-06-07T06:14:40.967Z,56.79
2019-06-07T06:16:00.631Z,56.58
2019-06-07T06:16:59.331Z,57.18
2019-06-07T06:18:08.193Z,57.40
2019-06-07T06:19:16.470Z,57.37
2019-06-07T06:20:32.845Z,57.37
2019-06-07T06:21:36.644Z,57.10
2019-06-07T06:22:50.585Z,56.99
2019-06-07T06:23:55.475Z,57.04
2019-06-07T06:26:14.883Z,56.23
2019-06-07T06:28:02.703Z,56.51
2019-06-07T06:28:45.686Z,55.70
2019-06-07T06:29:54.736Z,56.24
2019-06-07T06:31:02.724Z,56.40
2019-06-07T06:33:33.520Z,55.66
2019-06-07T06:34:32.574Z,56.06
2019-06-07T06:35:42.338Z,56.04
2019-06-07T06:36:51.110Z,56.00
2019-06-07T06:37:59.574Z,56.27
2019-06-07T06:39:10.227Z,55.84
2019-06-07T06:40:18.821Z,56.27
2019-06-07T06:41:27.626Z,56.36
2019-06-07T06:42:35.814Z,56.23
2019-06-07T06:43:49.083Z,55.98
2019-06-07T06:44:54.690Z,55.67
2019-06-07T06:46:03.523Z,56.16
2019-06-07T06:47:11.526Z,55.69
2019-06-07T06:48:20.496Z,55.39
2019-06-07T06:49:29.003Z,55.75
2019-06-07T06:50:38.706Z,55.02
2019-06-07T06:51:50.083Z,55.28
2019-06-07T06:52:57.139Z,54.99
2019-06-07T06:55:37.095Z,55.00
2019-06-07T06:56:46.747Z,55.25
2019-06-07T06:57:55.801Z,55.27
2019-06-07T07:00:17.537Z,55.38
2019-06-07T07:01:25.704Z,55.36
2019-06-07T07:02:34.666Z,55.13
2019-06-07T07:04:01.246Z,55.00
2019-06-07T07:04:54.017Z,54.77
2019-06-07T07:06:24.556Z,54.88
2019-06-07T07:07:14.451Z,54.80
2019-06-07T07:08:22.631Z,54.26
2019-06-07T07:09:31.587Z,53.54
2019-06-07T07:10:48.653Z,54.30
2019-06-07T07:12:11.122Z,53.60
2019-06-07T07:13:07.345Z,54.26
2019-06-07T07:14:16.462Z,53.35
2019-06-07T07:15:25.064Z,53.67
2019-06-07T07:16:35.481Z,52.86
2019-06-07T07:17:56.682Z,53.42
2019-06-07T07:18:54.719Z,53.14
2019-06-07T07:20:03.141Z,53.21
2019-06-07T07:21:12.012Z,53.50
2019-06-07T07:22:20.020Z,53.54
2019-06-07T07:23:29.280Z,52.83
2019-06-07T07:24:37.417Z,53.18
2019-06-07T07:25:51.146Z,53.46
2019-06-07T07:26:58.266Z,53.01
2019-06-07T07:28:07.058Z,52.66
2019-06-07T07:29:15.245Z,53.03
2019-06-07T07:30:47.392Z,53.18
2019-06-07T07:31:56.661Z,53.40
2019-06-07T07:33:06.777Z,52.35
2019-06-07T07:34:34.560Z,52.61
2019-06-07T07:35:25.676Z,52.53
2019-06-07T07:36:39.551Z,52.96
2019-06-07T07:38:07.983Z,51.94
2019-06-07T07:39:17.278Z,51.92
2019-06-07T07:41:36.013Z,52.18
2019-06-07T07:42:47.569Z,52.26
2019-06-07T07:44:05.283Z,52.36
2019-06-07T07:45:07.222Z,52.46
2019-06-07T07:46:30.519Z,51.67
2019-06-07T07:47:25.626Z,52.43
2019-06-07T07:48:33.642Z,52.39
2019-06-07T07:49:42.422Z,52.19
2019-06-07T07:50:54.435Z,52.48
2019-06-07T07:52:01.365Z,52.29
2019-06-07T07:53:09.759Z,51.86
2019-06-07T07:54:18.599Z,51.82
2019-06-07T07:55:26.765Z,51.83
2019-06-07T07:56:35.313Z,51.85
2019-06-07T07:57:45.924Z,51.76
2019-06-07T07:59:00.630Z,52.00
2019-06-07T08:00:48.097Z,52.06
2019-06-07T08:01:16.039Z,51.56
2019-06-07T08:02:23.977Z,52.27
2019-06-07T08:03:32.704Z,51.62
2019-06-07T08:05:13.524Z,51.40
2019-06-07T08:05:52.016Z,52.00
2019-06-07T08:07:00.425Z,51.78
2019-06-07T08:08:09.242Z,51.94
2019-06-07T08:09:24.449Z,51.95
2019-06-07T08:10:33.567Z,51.56
2019-06-07T08:11:41.760Z,50.61
2019-06-07T08:13:09.050Z,50.98
2019-06-07T08:14:00.559Z,50.89
2019-06-07T08:15:10.082Z,51.13
2019-06-07T08:16:18.895Z,51.22
2019-06-07T08:17:27.302Z,51.59
2019-06-07T08:18:35.514Z,50.97
2019-06-07T08:19:44.284Z,51.06
2019-06-07T08:21:08.652Z,51.14
2019-06-07T08:22:03.204Z,50.89
2019-06-07T08:23:11.463Z,51.08
2019-06-07T08:24:20.248Z,51.21
2019-06-07T08:25:28.457Z,51.10
2019-06-07T08:26:37.289Z,51.13
2019-06-07T08:27:45.292Z,51.41
2019-06-07T08:28:58.442Z,51.43
2019-06-07T08:30:35.057Z,51.19
2019-06-07T08:31:34.551Z,51.53
2019-06-07T08:32:42.868Z,50.91
2019-06-07T08:33:52.779Z,51.25
2019-06-07T08:35:05.951Z,50.44
2019-06-07T08:36:21.855Z,50.74
2019-06-07T08:37:21.977Z,50.53
2019-06-07T08:38:47.082Z,50.60
2019-06-07T08:39:40.523Z,50.77
2019-06-07T08:40:54.582Z,50.55
2019-06-07T08:42:13.777Z,50.47
2019-06-07T08:43:19.938Z,49.86
2019-06-07T08:44:23.647Z,50.27
2019-06-07T08:45:29.837Z,50.00
2019-06-07T08:46:37.971Z,50.02
2019-06-07T08:47:47.219Z,48.30
2019-06-07T08:48:57.157Z,47.70
2019-06-07T08:50:08.204Z,48.12
2019-06-07T08:51:16.243Z,48.20
2019-06-07T08:52:24.967Z,48.30
2019-06-07T08:53:33.245Z,48.58
2019-06-07T08:54:42.068Z,48.22
2019-06-07T08:55:52.398Z,48.42
2019-06-07T08:57:17.970Z,48.53
2019-06-07T08:58:10.304Z,48.75
2019-06-07T08:59:19.226Z,48.73
2019-06-07T09:00:46.947Z,48.58
2019-06-07T09:01:38.471Z,48.09
2019-06-07T09:02:46.650Z,47.02
2019-06-07T09:04:02.814Z,47.85
2019-06-07T09:05:12.264Z,47.68
2019-06-07T09:07:01.251Z,47.92
2019-06-07T09:07:27.869Z,47.78
2019-06-07T09:08:36.960Z,47.22
2019-06-07T09:09:44.943Z,46.69
2019-06-07T09:10:56.386Z,45.59
2019-06-07T09:12:08.334Z,45.38
2019-06-07T09:13:33.485Z,45.94
2019-06-07T09:14:58.880Z,46.11
2019-06-07T09:15:53.701Z,46.58
2019-06-07T09:17:08.810Z,45.80
2019-06-07T09:19:22.306Z,44.14
2019-06-07T09:20:50.712Z,44.54
2019-06-07T09:22:04.706Z,45.32
2019-06-07T09:23:16.669Z,44.73
2019-06-07T09:24:38.811Z,44.69
2019-06-07T09:25:57.396Z,44.72
2019-06-07T09:27:00.256Z,45.27
2019-06-07T09:28:18.748Z,45.07
2019-06-07T09:29:39.886Z,44.46
2019-06-07T09:30:49.101Z,44.92
2019-06-07T09:32:00.580Z,45.49
2019-06-07T09:33:27.360Z,45.15
2019-06-07T09:34:35.664Z,45.22
2019-06-07T09:35:44.636Z,45.24
2019-06-07T09:36:53.217Z,45.55
2019-06-07T09:38:11.062Z,45.73
2019-06-07T09:39:12.822Z,45.67
2019-06-07T09:40:27.881Z,45.68
2019-06-07T09:41:47.384Z,45.58
2019-06-07T09:42:46.899Z,45.86
2019-06-07T09:44:05.413Z,45.41
2019-06-07T09:45:11.720Z,45.47
2019-06-07T09:46:17.058Z,45.94
2019-06-07T09:47:32.445Z,46.19
2019-06-07T09:49:47.271Z,45.35
2019-06-07T09:51:02.143Z,45.70
2019-06-07T09:52:09.114Z,45.79
2019-06-07T09:53:22.295Z,45.93
2019-06-07T09:55:03.020Z,45.09
2019-06-07T09:55:36.536Z,44.48
2019-06-07T09:56:46.354Z,44.90
2019-06-07T09:57:54.629Z,44.94
2019-06-07T09:59:06.849Z,45.34
2019-06-07T10:01:28.143Z,45.08
2019-06-07T10:02:36.342Z,45.06
2019-06-07T10:03:45.123Z,45.42
2019-06-07T10:04:53.125Z,45.18
2019-06-07T10:06:11.052Z,45.65
2019-06-07T10:07:30.757Z,46.04
2019-06-07T10:09:42.458Z,46.43
2019-06-07T10:10:46.632Z,46.45
2019-06-07T10:11:55.099Z,46.52
2019-06-07T10:13:04.235Z,46.68
2019-06-07T10:14:12.740Z,46.52
2019-06-07T10:15:21.614Z,45.80
2019-06-07T10:16:37.376Z,45.81
2019-06-07T10:17:40.121Z,45.51
2019-06-07T10:18:48.317Z,44.85
2019-06-07T10:19:57.207Z,44.97
2019-06-07T10:21:05.788Z,45.47
2019-06-07T10:22:14.857Z,44.93
2019-06-07T10:23:22.851Z,43.92
2019-06-07T10:24:31.881Z,44.45
2019-06-07T10:25:40.292Z,43.56
2019-06-07T10:26:48.996Z,43.77
2019-06-07T10:27:57.800Z,43.73
2019-06-07T10:29:07.335Z,44.08
2019-06-07T10:30:17.985Z,43.82
2019-06-07T10:31:26.957Z,43.52
2019-06-07T10:32:35.227Z,43.23
2019-06-07T10:33:44.230Z,43.36
2019-06-07T10:34:52.597Z,44.52
2019-06-07T10:36:02.452Z,43.91
2019-06-07T10:37:14.393Z,45.22
2019-06-07T10:38:21.321Z,43.45
2019-06-07T10:39:29.253Z,43.48
2019-06-07T10:40:38.433Z,44.17
2019-06-07T10:41:46.541Z,43.31
2019-06-07T10:42:55.488Z,44.89
2019-06-07T10:44:03.592Z,42.43
2019-06-07T10:45:12.756Z,41.72
2019-06-07T10:46:21.072Z,40.26
2019-06-07T10:47:29.874Z,41.13
2019-06-07T10:48:38.328Z,40.93
2019-06-07T10:49:47.041Z,41.11
2019-06-07T10:50:54.936Z,40.78
2019-06-07T10:52:06.654Z,40.67
2019-06-07T10:53:13.840Z,40.83
2019-06-07T10:54:29.575Z,40.76
2019-06-07T10:55:32.097Z,40.20
2019-06-07T10:56:41.049Z,40.96
2019-06-07T10:57:49.044Z,40.97
2019-06-07T10:58:57.920Z,41.01
2019-06-07T11:00:11.857Z,41.32
2019-06-07T11:01:21.140Z,41.66
2019-06-07T11:02:29.169Z,41.31
2019-06-07T11:03:39.124Z,40.75
2019-06-07T11:04:47.380Z,41.74
2019-06-07T11:05:56.334Z,39.90
2019-06-07T11:07:05.034Z,39.87
2019-06-07T11:08:15.331Z,39.00
2019-06-07T11:09:23.349Z,40.17
2019-06-07T11:10:32.348Z,39.22
2019-06-07T11:11:40.980Z,38.86
2019-06-07T11:12:49.887Z,38.77
2019-06-07T11:13:57.922Z,39.19
2019-06-07T11:15:11.214Z,39.26
2019-06-07T11:16:19.217Z,38.62
2019-06-07T11:17:27.996Z,38.16
2019-06-07T11:18:36.261Z,38.76
2019-06-07T11:19:45.264Z,39.07
2019-06-07T11:20:53.514Z,39.42
2019-06-07T11:22:02.686Z,39.39
2019-06-07T11:23:10.590Z,39.65
2019-06-07T11:24:24.551Z,39.80
2019-06-07T11:25:30.044Z,40.13
2019-06-07T11:26:38.980Z,40.20
2019-06-07T11:27:47.257Z,40.42
2019-06-07T11:29:19.183Z,40.11
2019-06-07T11:30:29.111Z,40.25
2019-06-07T11:31:37.746Z,40.37
2019-06-07T11:32:45.663Z,39.65
2019-06-07T11:33:54.589Z,39.84
2019-06-07T11:35:02.784Z,39.51
2019-06-07T11:36:12.858Z,40.08
2019-06-07T11:37:21.020Z,40.12
2019-06-07T11:38:29.963Z,39.76
2019-06-07T11:39:38.088Z,39.54
2019-06-07T11:40:47.285Z,38.30
2019-06-07T11:41:55.479Z,38.40
2019-06-07T11:43:04.596Z,38.15
2019-06-07T11:44:13.095Z,37.94
2019-06-07T11:45:22.436Z,37.22
2019-06-07T11:46:30.742Z,37.16
2019-06-07T11:47:39.985Z,36.66
2019-06-07T11:48:48.173Z,37.00
2019-06-07T11:49:57.508Z,37.24
2019-06-07T11:51:06.667Z,36.51
2019-06-07T11:52:15.869Z,36.75
2019-06-07T11:53:24.019Z,37.42
2019-06-07T11:54:32.850Z,35.55
2019-06-07T11:55:40.935Z,35.62
2019-06-07T11:56:49.864Z,35.70
2019-06-07T11:57:58.047Z,35.04
2019-06-07T11:59:08.800Z,35.05
2019-06-07T12:00:19.014Z,34.64
2019-06-07T12:01:27.829Z,33.62
2019-06-07T12:02:35.875Z,33.61
2019-06-07T12:03:45.007Z,33.48
2019-06-07T12:04:52.954Z,33.30
2019-06-07T12:06:01.765Z,33.41
2019-06-07T12:07:12.020Z,34.19
2019-06-07T12:08:21.072Z,34.22
2019-06-07T12:09:29.675Z,34.17
2019-06-07T12:10:42.560Z,33.69
2019-06-07T12:11:48.318Z,34.19
2019-06-07T12:12:57.645Z,34.37
2019-06-07T12:14:06.675Z,33.28
2019-06-07T12:15:17.289Z,33.65
2019-06-07T12:16:25.586Z,33.06
2019-06-07T12:17:35.170Z,32.97
2019-06-07T12:18:43.363Z,33.20
2019-06-07T12:19:53.402Z,33.44
2019-06-07T12:21:01.450Z,33.71
2019-06-07T12:22:11.728Z,33.70
2019-06-07T12:24:39.040Z,33.73
2019-06-07T12:25:47.393Z,33.09
2019-06-07T12:26:56.562Z,33.78
2019-06-07T12:28:04.618Z,34.17
2019-06-07T12:29:14.802Z,33.82
2019-06-07T12:30:27.704Z,33.67
2019-06-07T12:31:33.862Z,33.54
2019-06-07T12:32:42.038Z,33.37
2019-06-07T12:33:51.790Z,33.31
2019-06-07T12:35:00.462Z,32.98
2019-06-07T12:36:09.244Z,32.90
2019-06-07T12:37:20.469Z,33.14
2019-06-07T12:38:27.646Z,32.21
2019-06-07T12:39:35.642Z,32.82
2019-06-07T12:40:56.816Z,32.75
2019-06-07T12:41:54.009Z,33.24
2019-06-07T12:43:02.978Z,32.98
2019-06-07T12:44:12.492Z,31.61
2019-06-07T12:45:40.149Z,32.18
2019-06-07T12:46:31.162Z,31.74
2019-06-07T12:47:39.916Z,31.78
2019-06-07T12:48:48.117Z,32.63
2019-06-07T12:49:57.233Z,32.65
2019-06-07T12:51:06.006Z,31.92
2019-06-07T12:52:17.749Z,32.40
2019-06-07T12:53:28.141Z,31.55
2019-06-07T12:54:36.376Z,32.07
2019-06-07T12:55:44.904Z,32.07
2019-06-07T12:56:53.809Z,32.28
2019-06-07T12:58:01.847Z,31.85
2019-06-07T12:59:10.453Z,31.95
2019-06-07T13:00:20.228Z,31.35
2019-06-07T13:01:28.804Z,31.51
2019-06-07T13:02:36.845Z,32.25
2019-06-07T13:03:45.944Z,32.26
2019-06-07T13:04:54.524Z,32.44
2019-06-07T13:06:03.283Z,31.94
2019-06-07T13:07:11.572Z,32.01
2019-06-07T13:08:21.939Z,32.47
2019-06-07T13:09:29.987Z,31.37
2019-06-07T13:10:39.121Z,31.82
2019-06-07T13:11:47.484Z,31.78
2019-06-07T13:12:55.804Z,31.96
2019-06-07T13:14:04.006Z,31.83
2019-06-07T13:15:17.677Z,31.54
2019-06-07T13:16:24.373Z,31.68
2019-06-07T13:17:33.410Z,31.76
2019-06-07T13:18:41.615Z,31.29
2019-06-07T13:19:50.341Z,31.96
2019-06-07T13:20:58.433Z,31.73
2019-06-07T13:22:07.354Z,31.30
2019-06-07T13:23:16.117Z,32.08
2019-06-07T13:24:25.316Z,31.16
2019-06-07T13:25:45.712Z,31.58
2019-06-07T13:26:44.746Z,31.51
2019-06-07T13:27:52.856Z,31.82
2019-06-07T13:29:01.889Z,32.13
2019-06-07T13:30:11.402Z,31.92
2019-06-07T13:31:21.088Z,31.23
2019-06-07T13:32:29.305Z,31.17
2019-06-07T13:33:39.067Z,31.06
2019-06-07T13:34:47.847Z,30.81
2019-06-07T13:35:56.690Z,30.98
2019-06-07T13:37:04.686Z,31.35
2019-06-07T13:38:16.160Z,30.68
2019-06-07T13:39:29.296Z,30.76
2019-06-07T13:40:36.554Z,31.30
2019-06-07T13:41:44.855Z,32.05
2019-06-07T13:42:53.653Z,32.06
2019-06-07T13:44:01.420Z,32.03
2019-06-07T13:45:10.872Z,30.94
2019-06-07T13:46:19.054Z,31.14
2019-06-07T13:47:27.835Z,31.38
2019-06-07T13:48:35.845Z,31.70
2019-06-07T13:49:44.614Z,31.53
2019-06-07T13:50:52.569Z,31.87
2019-06-07T13:52:01.624Z,32.00
2019-06-07T13:53:09.661Z,31.23
2019-06-07T13:54:18.640Z,31.95
2019-06-07T13:55:27.903Z,31.46
2019-06-07T13:56:37.389Z,31.78
2019-06-07T13:57:45.591Z,31.68
2019-06-07T13:58:54.628Z,31.67
2019-06-07T14:00:10.457Z,31.77
2019-06-07T14:01:13.645Z,32.19
2019-06-07T14:02:23.513Z,32.05
2019-06-07T14:03:33.947Z,31.66
2019-06-07T14:04:42.155Z,31.72
2019-06-07T14:05:51.312Z,31.77
2019-06-07T14:06:59.563Z,30.84
2019-06-07T14:08:07.851Z,31.34
2019-06-07T14:09:16.249Z,31.56
2019-06-07T14:10:25.599Z,31.49
2019-06-07T14:11:49.577Z,31.44
2019-06-07T14:12:44.164Z,31.11
2019-06-07T14:13:52.560Z,30.68
2019-06-07T14:15:01.302Z,30.62
2019-06-07T14:16:09.358Z,30.71
2019-06-07T14:17:18.208Z,30.89
2019-06-07T14:18:30.658Z,31.35
2019-06-07T14:19:40.339Z,31.71
2019-06-07T14:20:54.679Z,31.31
2019-06-07T14:22:03.757Z,31.42
2019-06-07T14:23:12.654Z,31.53
2019-06-07T14:24:22.927Z,31.57
2019-06-07T14:25:31.523Z,31.37
2019-06-07T14:26:41.688Z,31.37
2019-06-07T14:27:51.949Z,31.40
2019-06-07T14:29:09.884Z,31.30
2019-06-07T14:30:24.086Z,31.56
2019-06-07T14:31:32.761Z,31.94
2019-06-07T14:32:40.843Z,31.53
2019-06-07T14:33:53.467Z,31.73
2019-06-07T14:35:03.204Z,31.96
2019-06-07T14:36:12.146Z,32.04
2019-06-07T14:37:22.778Z,32.06
2019-06-07T14:38:37.330Z,32.16
2019-06-07T14:39:45.348Z,32.23
2019-06-07T14:40:54.045Z,32.09
2019-06-07T14:42:09.164Z,32.28
2019-06-07T14:43:13.105Z,32.28
2019-06-07T14:44:21.763Z,31.93
2019-06-07T14:45:32.763Z,32.17
2019-06-07T14:46:40.434Z,32.35
2019-06-07T14:47:49.351Z,32.28
2019-06-07T14:48:57.350Z,32.18
2019-06-07T14:50:11.038Z,32.11
2019-06-07T14:51:19.029Z,31.98
2019-06-07T14:52:28.436Z,31.82
2019-06-07T14:53:36.841Z,31.71
2019-06-07T14:54:45.649Z,31.83
2019-06-07T14:55:53.791Z,31.68
2019-06-07T14:57:03.525Z,32.00
2019-06-07T14:58:11.679Z,31.92
2019-06-07T14:59:20.678Z,31.86
2019-06-07T15:00:44.589Z,32.43
2019-06-07T15:01:53.398Z,32.02
2019-06-07T15:03:01.646Z,32.15
2019-06-07T15:04:10.460Z,32.33
2019-06-07T15:05:21.424Z,32.45
2019-06-07T15:06:30.705Z,32.19
2019-06-07T15:07:40.531Z,32.56
2019-06-07T15:08:51.482Z,32.40
2019-06-07T15:09:58.971Z,32.24
2019-06-07T15:11:07.746Z,31.68
2019-06-07T15:12:24.566Z,31.84
2019-06-07T15:13:27.424Z,31.75
2019-06-07T15:14:35.723Z,32.03